Terminal Aerodrome Forecast
Issued by NWS Tampa Bay Area, FL

Home | Current Version | Previous Version | Text Only | Print | Product List | Glossary On
Versions: 1 2 3 4 5 6 7 8 9 10 11 12 13 14 15
000
FTUS42 KTBW 182011 AAA
TAFSRQ
TAF AMD
KSRQ 182011Z 1820/1918 07009G18KT P6SM SCT040 BKN050 BKN200
      TEMPO 1820/1822 -SHRA BKN030
     FM182300 06012KT P6SM SCT040 BKN250
     FM190900 05007KT P6SM SCT010 SCT250=

USA.gov is the U.S. government's official web portal to all federal, state and local government web resources and services.